Time;durP1;ratioP1;P1;durP2;ratioP2;P2;SDS_P1;SDS_P2;PMS_P1;PMS_P2;Temp;Humidity;BMP_temperature;BMP_pressure;BME280_temperature;BME280_humidity;BME280_pressure;Samples;Min_cycle;Max_cycle;Signal;HPM_P1;HPM_P2
2023/06/12 00:00:07;;;;;;;;;;;;;;;18.12;52.45;99414.06;4496987;31;33773;-82
2023/06/12 00:02:37;;;;;;;;;;;;;;;17.59;54.51;99422.66;4484202;31;34153;-83
2023/06/12 00:05:08;;;;;;;;;;;;;;;17.64;53.18;99418.09;4482608;32;34997;-83
2023/06/12 00:07:37;;;;;;;;;;;;;;;17.81;53.80;99427.81;4484661;31;33099;-82
2023/06/12 00:10:06;;;;;;;;;;;;;;;17.60;53.35;99417.38;4483169;32;33494;-82
2023/06/12 00:12:35;;;;;;;;;;;;;;;18.17;52.33;99419.97;4485662;32;34028;-82
2023/06/12 00:15:03;;;;;;;;;;;;;;;18.35;51.94;99418.19;4481527;31;33796;-83
2023/06/12 00:17:34;;;;;;;;;;;;;;;18.24;50.79;99399.47;4490378;31;33667;-83
2023/06/12 00:20:04;;;;;;;;;;;;;;;17.64;53.53;99411.06;4489868;31;34018;-84
2023/06/12 00:22:39;;;;;;;;;;;;;;;17.67;53.08;99405.66;4499873;31;34923;-83
2023/06/12 00:25:08;;;;;;;;;;;;;;;17.46;54.55;99398.78;4497344;31;33787;-83
2023/06/12 00:27:37;;;;;;;;;;;;;;;17.45;53.69;99402.34;4480568;31;34142;-84
2023/06/12 00:30:06;;;;;;;;;;;;;;;17.68;53.13;99394.22;4493779;31;34444;-84
2023/06/12 00:32:37;;;;;;;;;;;;;;;17.14;54.91;99408.13;4489263;31;33642;-83
2023/06/12 00:35:06;;;;;;;;;;;;;;;17.62;53.50;99405.03;4493462;31;34274;-83
2023/06/12 00:37:35;;;;;;;;;;;;;;;17.66;53.21;99408.34;4489660;31;32976;-82
2023/06/12 00:40:06;;;;;;;;;;;;;;;17.75;52.28;99407.06;4494051;31;33877;-83
2023/06/12 00:42:38;;;;;;;;;;;;;;;17.06;54.75;99405.84;4483755;31;33835;-83
2023/06/12 00:45:07;;;;;;;;;;;;;;;18.18;51.88;99402.44;4497108;31;34334;-83
2023/06/12 00:47:38;;;;;;;;;;;;;;;17.58;53.41;99406.09;4483302;31;32843;-82
2023/06/12 00:50:09;;;;;;;;;;;;;;;17.09;54.35;99403.09;4493508;31;33779;-82
2023/06/12 00:52:40;;;;;;;;;;;;;;;17.26;54.14;99405.78;4491459;31;33459;-83
2023/06/12 00:55:09;;;;;;;;;;;;;;;17.05;55.01;99401.50;4476945;31;33885;-83
2023/06/12 00:57:38;;;;;;;;;;;;;;;17.64;53.21;99403.19;4481929;31;32579;-82
2023/06/12 01:00:07;;;;;;;;;;;;;;;17.24;53.87;99404.16;4480017;31;34354;-84
2023/06/12 01:02:42;;;;;;;;;;;;;;;17.75;52.14;99397.41;4477664;31;33664;-83
2023/06/12 01:05:12;;;;;;;;;;;;;;;17.04;54.29;99403.28;4477201;31;34134;-83
2023/06/12 01:07:43;;;;;;;;;;;;;;;17.84;52.12;99402.28;4489146;31;33463;-82
2023/06/12 01:10:14;;;;;;;;;;;;;;;18.23;50.78;99398.63;4482948;31;34244;-84
2023/06/12 01:12:43;;;;;;;;;;;;;;;18.25;51.17;99398.56;4477576;31;33497;-83
2023/06/12 01:15:13;;;;;;;;;;;;;;;18.02;52.05;99402.31;4478890;31;33324;-83
2023/06/12 01:17:43;;;;;;;;;;;;;;;17.29;54.14;99394.31;4480870;31;31631;-83
2023/06/12 01:20:13;;;;;;;;;;;;;;;17.84;52.59;99391.78;4482563;31;33879;-84
2023/06/12 01:22:43;;;;;;;;;;;;;;;18.05;52.26;99387.28;4482632;31;34287;-83
2023/06/12 01:25:13;;;;;;;;;;;;;;;17.62;53.15;99391.06;4476796;31;34548;-84
2023/06/12 01:27:48;;;;;;;;;;;;;;;17.48;53.49;99389.94;4480157;31;33457;-82
2023/06/12 01:30:24;;;;;;;;;;;;;;;17.64;52.95;99392.69;4477238;31;33873;-84
2023/06/12 01:32:56;;;;;;;;;;;;;;;17.96;52.13;99394.75;4487237;31;34101;-83
2023/06/12 01:35:24;;;;;;;;;;;;;;;17.17;53.45;99393.09;4488312;31;34045;-82
2023/06/12 01:37:56;;;;;;;;;;;;;;;17.53;53.30;99394.13;4489974;31;33377;-83
2023/06/12 01:40:25;;;;;;;;;;;;;;;17.57;53.10;99390.44;4487580;31;34226;-84
2023/06/12 01:42:53;;;;;;;;;;;;;;;18.24;51.33;99391.59;4485933;31;34111;-84
2023/06/12 01:45:23;;;;;;;;;;;;;;;17.89;51.77;99399.44;4486851;31;34513;-84
2023/06/12 01:47:52;;;;;;;;;;;;;;;18.36;50.99;99403.28;4479932;31;32842;-83
2023/06/12 01:50:22;;;;;;;;;;;;;;;17.65;52.54;99401.41;4489968;31;34287;-84
2023/06/12 01:52:51;;;;;;;;;;;;;;;17.80;53.16;99405.97;4493116;31;33278;-83
2023/06/12 01:55:21;;;;;;;;;;;;;;;18.71;50.06;99401.50;4498567;31;34542;-83
2023/06/12 01:57:50;;;;;;;;;;;;;;;18.34;50.25;99408.63;4492543;31;33350;-82
2023/06/12 02:00:22;;;;;;;;;;;;;;;18.17;51.07;99414.72;4492914;31;34147;-83
2023/06/12 02:02:56;;;;;;;;;;;;;;;18.69;49.56;99411.25;4493145;31;34262;-83
2023/06/12 02:05:26;;;;;;;;;;;;;;;18.73;49.40;99408.38;4482587;31;35916;-84
2023/06/12 02:07:55;;;;;;;;;;;;;;;18.51;50.62;99406.00;4477590;32;32194;-83
2023/06/12 02:10:25;;;;;;;;;;;;;;;18.57;50.71;99404.84;4477672;32;34374;-84
2023/06/12 02:12:54;;;;;;;;;;;;;;;18.67;49.31;99403.44;4476862;32;34824;-83
2023/06/12 02:15:24;;;;;;;;;;;;;;;18.33;50.45;99418.25;4477321;32;34748;-83
2023/06/12 02:17:53;;;;;;;;;;;;;;;18.48;49.98;99410.53;4482667;32;32781;-82
2023/06/12 02:20:23;;;;;;;;;;;;;;;18.67;49.45;99408.69;4477112;32;33816;-83
2023/06/12 02:22:55;;;;;;;;;;;;;;;18.59;48.77;99402.12;4482999;31;34122;-83
2023/06/12 02:25:24;;;;;;;;;;;;;;;18.07;50.97;99410.81;4493173;31;33306;-83
2023/06/12 02:27:53;;;;;;;;;;;;;;;18.31;49.98;99406.13;4498236;31;33519;-82
2023/06/12 02:30:22;;;;;;;;;;;;;;;18.43;50.09;99415.19;4493234;31;34122;-83
2023/06/12 02:32:54;;;;;;;;;;;;;;;18.48;49.48;99413.16;4492593;31;35015;-83
2023/06/12 02:35:23;;;;;;;;;;;;;;;18.01;51.61;99404.09;4492992;31;33290;-83
2023/06/12 02:37:52;;;;;;;;;;;;;;;18.13;50.49;99413.16;4492753;31;32824;-83
2023/06/12 02:40:22;;;;;;;;;;;;;;;18.36;50.49;99405.91;4496395;31;34189;-84
2023/06/12 02:42:53;;;;;;;;;;;;;;;17.77;52.37;99411.31;4486143;31;33788;-84
2023/06/12 02:45:22;;;;;;;;;;;;;;;18.28;50.14;99411.53;4485323;31;34260;-83
2023/06/12 02:47:52;;;;;;;;;;;;;;;18.40;50.61;99410.09;4491661;31;33119;-84
2023/06/12 02:50:21;;;;;;;;;;;;;;;17.27;53.50;99412.72;4492376;31;34200;-83
2023/06/12 02:52:50;;;;;;;;;;;;;;;17.96;52.37;99413.97;4487940;31;34296;-83
2023/06/12 02:55:19;;;;;;;;;;;;;;;18.22;51.13;99415.34;4478108;31;33908;-83
2023/06/12 02:57:49;;;;;;;;;;;;;;;18.26;51.06;99411.59;4478418;31;33926;-83
2023/06/12 03:00:19;;;;;;;;;;;;;;;18.02;51.58;99408.41;4477421;31;34910;-83
2023/06/12 03:02:48;;;;;;;;;;;;;;;16.95;54.48;99413.31;4486137;31;33908;-83
2023/06/12 03:05:17;;;;;;;;;;;;;;;17.27;53.00;99410.09;4478520;31;34421;-82
2023/06/12 03:07:46;;;;;;;;;;;;;;;17.78;52.45;99410.38;4478696;31;33086;-82
2023/06/12 03:10:16;;;;;;;;;;;;;;;17.77;51.86;99413.94;4479305;31;32057;-83
2023/06/12 03:12:44;;;;;;;;;;;;;;;17.02;53.93;99410.34;4483430;31;34224;-83
2023/06/12 03:15:16;;;;;;;;;;;;;;;17.68;51.56;99417.00;4472727;31;33090;-83
2023/06/12 03:17:45;;;;;;;;;;;;;;;17.59;51.97;99414.78;4478648;31;33321;-81
2023/06/12 03:20:15;;;;;;;;;;;;;;;17.01;53.23;99411.28;4479287;31;34429;-81
2023/06/12 03:22:45;;;;;;;;;;;;;;;17.04;53.40;99413.78;4493628;31;34858;-81
2023/06/12 03:25:18;;;;;;;;;;;;;;;17.23;51.60;99410.34;4494132;31;34110;-82
2023/06/12 03:27:48;;;;;;;;;;;;;;;17.58;51.57;99402.62;4480871;31;34451;-81
2023/06/12 03:30:18;;;;;;;;;;;;;;;17.05;52.48;99410.22;4482893;31;34585;-80
2023/06/12 03:32:48;;;;;;;;;;;;;;;16.96;52.50;99412.38;4477499;31;34354;-81
2023/06/12 03:35:18;;;;;;;;;;;;;;;17.37;51.57;99407.94;4491823;31;33549;-81
2023/06/12 03:37:46;;;;;;;;;;;;;;;17.45;51.84;99408.44;4488143;31;33302;-80
2023/06/12 03:40:16;;;;;;;;;;;;;;;16.89;53.24;99408.34;4481364;31;34165;-81
2023/06/12 03:42:45;;;;;;;;;;;;;;;17.17;52.30;99407.97;4493525;31;33787;-82
2023/06/12 03:45:14;;;;;;;;;;;;;;;17.29;51.66;99410.03;4492247;31;33662;-81
2023/06/12 03:47:44;;;;;;;;;;;;;;;17.03;52.17;99409.47;4482343;31;34028;-80
2023/06/12 03:50:14;;;;;;;;;;;;;;;16.80;53.48;99414.84;4478047;31;33376;-81
2023/06/12 03:52:43;;;;;;;;;;;;;;;16.93;52.51;99416.00;4484449;31;33613;-81
2023/06/12 03:55:13;;;;;;;;;;;;;;;17.51;51.32;99412.53;4486225;31;33910;-82
2023/06/12 03:57:41;;;;;;;;;;;;;;;17.26;51.46;99418.06;4489697;31;32698;-81
2023/06/12 04:00:11;;;;;;;;;;;;;;;17.72;50.79;99415.94;4489142;31;32231;-81
2023/06/12 04:02:45;;;;;;;;;;;;;;;17.59;51.15;99414.78;4486773;31;34676;-80
2023/06/12 04:05:20;;;;;;;;;;;;;;;17.26;51.54;99410.19;4477236;31;34379;-81
2023/06/12 04:07:49;;;;;;;;;;;;;;;17.93;49.75;99414.13;4481609;31;33182;-82
2023/06/12 04:10:19;;;;;;;;;;;;;;;17.70;50.00;99409.91;4483542;31;33598;-81
2023/06/12 04:12:47;;;;;;;;;;;;;;;17.66;50.12;99405.72;4478720;31;33418;-80
2023/06/12 04:15:16;;;;;;;;;;;;;;;16.98;51.56;99411.41;4483006;31;34203;-82
2023/06/12 04:17:47;;;;;;;;;;;;;;;17.32;50.60;99404.66;4478610;31;32580;-82
2023/06/12 04:20:15;;;;;;;;;;;;;;;18.02;48.63;99403.16;4481774;31;34236;-81
2023/06/12 04:22:47;;;;;;;;;;;;;;;18.89;46.53;99402.34;4482193;31;33938;-81
2023/06/12 04:25:18;;;;;;;;;;;;;;;19.82;44.35;99402.62;4476862;32;34821;-82
2023/06/12 04:27:48;;;;;;;;;;;;;;;19.74;44.57;99401.31;4480478;31;32689;-82
2023/06/12 04:30:21;;;;;;;;;;;;;;;19.49;44.72;99407.91;4483351;31;34283;-83
2023/06/12 04:32:53;;;;;;;;;;;;;;;19.68;43.97;99407.78;4497999;31;34704;-81
2023/06/12 04:35:22;;;;;;;;;;;;;;;19.60;44.23;99402.94;4488740;31;33431;-82
2023/06/12 04:37:52;;;;;;;;;;;;;;;20.63;42.28;99409.44;4442005;32;1117313;-83
2023/06/12 04:40:22;;;;;;;;;;;;;;;20.39;42.22;99402.03;4490626;31;33248;-82
2023/06/12 04:42:59;;;;;;;;;;;;;;;20.81;41.54;99411.00;4496991;31;33855;-81
2023/06/12 04:45:32;;;;;;;;;;;;;;;20.59;42.30;99418.47;4482285;31;34436;-82
2023/06/12 04:48:03;;;;;;;;;;;;;;;20.72;41.53;99418.59;4487814;31;34050;-81
2023/06/12 04:50:33;;;;;;;;;;;;;;;19.60;43.28;99412.59;4478704;31;34748;-82
2023/06/12 04:53:02;;;;;;;;;;;;;;;19.15;44.31;99417.62;4478411;32;33888;-81
2023/06/12 04:55:31;;;;;;;;;;;;;;;20.45;42.23;99419.25;4493044;31;34386;-82
2023/06/12 04:58:00;;;;;;;;;;;;;;;20.38;41.85;99416.13;4495071;31;33336;-81
2023/06/12 05:00:30;;;;;;;;;;;;;;;21.01;41.14;99420.31;4484673;31;34467;-82
2023/06/12 05:03:00;;;;;;;;;;;;;;;19.52;43.71;99418.28;4489150;31;33966;-82
2023/06/12 05:05:31;;;;;;;;;;;;;;;20.92;40.92;99420.03;4493224;31;34321;-81
2023/06/12 05:08:01;;;;;;;;;;;;;;;20.76;41.46;99426.22;4490672;31;33046;-82
2023/06/12 05:10:31;;;;;;;;;;;;;;;20.65;40.59;99428.66;4492805;31;35022;-82
2023/06/12 05:13:02;;;;;;;;;;;;;;;20.20;42.44;99427.72;4490961;31;34718;-81
2023/06/12 05:15:34;;;;;;;;;;;;;;;19.99;41.81;99419.25;4492237;31;33566;-82
2023/06/12 05:18:04;;;;;;;;;;;;;;;19.31;43.63;99427.34;4482854;31;33159;-82
2023/06/12 05:20:38;;;;;;;;;;;;;;;19.66;43.59;99427.19;4490748;31;34266;-82
2023/06/12 05:23:06;;;;;;;;;;;;;;;20.74;41.65;99424.63;4492958;31;35338;-82
2023/06/12 05:25:36;;;;;;;;;;;;;;;19.44;43.20;99425.72;4478899;31;33388;-82
2023/06/12 05:28:06;;;;;;;;;;;;;;;20.27;41.26;99421.16;4490811;31;33447;-82
2023/06/12 05:30:35;;;;;;;;;;;;;;;19.11;44.56;99425.75;4490096;31;33759;-81
2023/06/12 05:33:04;;;;;;;;;;;;;;;19.22;44.12;99433.09;4496435;31;33607;-81
2023/06/12 05:35:34;;;;;;;;;;;;;;;20.15;42.61;99421.84;4485717;31;34021;-81
2023/06/12 05:38:06;;;;;;;;;;;;;;;19.81;42.94;99440.41;4493632;31;34831;-81
2023/06/12 05:40:35;;;;;;;;;;;;;;;20.16;42.25;99423.56;4498505;31;33607;-82
2023/06/12 05:43:04;;;;;;;;;;;;;;;20.71;40.65;99435.34;4490484;31;34182;-81
2023/06/12 05:45:33;;;;;;;;;;;;;;;20.68;40.70;99431.09;4477483;31;34448;-82
2023/06/12 05:48:03;;;;;;;;;;;;;;;20.09;42.15;99433.59;4492851;31;33818;-82
2023/06/12 05:50:33;;;;;;;;;;;;;;;20.71;41.12;99444.13;4498157;31;33330;-82
2023/06/12 05:53:08;;;;;;;;;;;;;;;20.80;39.93;99443.56;4496727;31;34231;-82
2023/06/12 05:55:38;;;;;;;;;;;;;;;20.45;40.39;99443.81;4477898;31;33196;-83
2023/06/12 05:58:06;;;;;;;;;;;;;;;19.93;41.54;99441.50;4491336;31;33767;-81
2023/06/12 06:00:35;;;;;;;;;;;;;;;19.49;42.28;99439.50;4495561;31;33767;-81
2023/06/12 06:03:06;;;;;;;;;;;;;;;19.07;43.90;99448.72;4498336;31;35150;-82
2023/06/12 06:05:36;;;;;;;;;;;;;;;19.44;42.65;99441.53;4492707;31;33302;-82
2023/06/12 06:08:07;;;;;;;;;;;;;;;18.80;43.86;99447.50;4492573;31;33412;-81
2023/06/12 06:10:39;;;;;;;;;;;;;;;19.28;44.05;99449.41;4492353;31;33653;-80
2023/06/12 06:13:08;;;;;;;;;;;;;;;18.52;44.99;99459.37;4496565;31;34024;-82
2023/06/12 06:15:40;;;;;;;;;;;;;;;18.37;45.52;99461.00;4490193;31;33664;-81
2023/06/12 06:18:10;;;;;;;;;;;;;;;18.61;45.00;99453.69;4477224;32;31999;-81
2023/06/12 06:20:39;;;;;;;;;;;;;;;18.93;44.02;99459.09;4477249;32;33896;-81
2023/06/12 06:23:09;;;;;;;;;;;;;;;18.92;44.01;99463.53;4477403;32;33657;-81
2023/06/12 06:25:39;;;;;;;;;;;;;;;18.61;44.49;99450.22;4482353;32;34184;-81
2023/06/12 06:28:09;;;;;;;;;;;;;;;18.51;44.72;99458.53;4482287;31;34146;-81
2023/06/12 06:30:37;;;;;;;;;;;;;;;18.96;43.97;99451.06;4492867;31;35500;-81
2023/06/12 06:33:06;;;;;;;;;;;;;;;19.49;43.63;99457.91;4492165;31;34079;-81
2023/06/12 06:35:34;;;;;;;;;;;;;;;19.42;43.59;99450.44;4493378;31;34732;-81
2023/06/12 06:38:04;;;;;;;;;;;;;;;18.87;44.33;99449.78;4489244;31;33583;-82
2023/06/12 06:40:34;;;;;;;;;;;;;;;19.69;43.49;99453.38;4492014;31;33775;-81
2023/06/12 06:43:04;;;;;;;;;;;;;;;19.50;42.51;99457.00;4488338;31;34135;-82
2023/06/12 06:45:35;;;;;;;;;;;;;;;19.28;43.36;99453.78;4491698;31;34585;-81
2023/06/12 06:48:05;;;;;;;;;;;;;;;19.16;42.36;99458.78;4497597;31;32822;-81
2023/06/12 06:50:34;;;;;;;;;;;;;;;19.65;42.42;99454.47;4489501;31;34012;-82
2023/06/12 06:53:03;;;;;;;;;;;;;;;20.07;40.59;99468.84;4491743;31;33987;-82
2023/06/12 06:55:32;;;;;;;;;;;;;;;19.53;40.97;99469.97;4480103;31;33569;-82
2023/06/12 06:58:05;;;;;;;;;;;;;;;20.08;41.14;99460.87;4492122;31;33601;-82
2023/06/12 07:00:35;;;;;;;;;;;;;;;20.06;39.78;99461.91;4496330;31;34528;-80
2023/06/12 07:03:05;;;;;;;;;;;;;;;20.00;39.89;99469.19;4491666;31;34632;-81
2023/06/12 07:05:33;;;;;;;;;;;;;;;19.61;40.25;99457.25;4491022;31;32777;-82
2023/06/12 07:08:03;;;;;;;;;;;;;;;19.82;39.85;99452.63;4483782;31;32745;-81
2023/06/12 07:10:32;;;;;;;;;;;;;;;20.03;39.91;99458.50;4483939;31;34205;-82
2023/06/12 07:13:01;;;;;;;;;;;;;;;19.76;40.88;99465.28;4476277;31;34951;-83
2023/06/12 07:15:32;;;;;;;;;;;;;;;19.85;40.87;99461.28;4491598;31;34077;-81
2023/06/12 07:18:01;;;;;;;;;;;;;;;19.96;40.68;99464.19;4492796;31;32429;-81
2023/06/12 07:20:30;;;;;;;;;;;;;;;19.64;40.60;99458.00;4496597;31;33849;-81
2023/06/12 07:22:59;;;;;;;;;;;;;;;19.65;39.66;99452.69;4491705;31;33896;-81
2023/06/12 07:25:28;;;;;;;;;;;;;;;19.38;39.61;99461.13;4491777;31;33940;-83
2023/06/12 07:27:57;;;;;;;;;;;;;;;20.27;39.00;99462.44;4491485;31;33240;-82
2023/06/12 07:30:26;;;;;;;;;;;;;;;20.16;38.77;99458.66;4492091;31;33969;-82
2023/06/12 07:32:57;;;;;;;;;;;;;;;19.98;39.05;99459.66;4499326;31;34102;-82
2023/06/12 07:35:26;;;;;;;;;;;;;;;20.43;37.63;99461.50;4489044;31;33109;-81
2023/06/12 07:37:55;;;;;;;;;;;;;;;20.33;38.04;99452.41;4493525;31;34144;-81
2023/06/12 07:40:27;;;;;;;;;;;;;;;20.00;38.33;99456.00;4493737;31;33511;-82
2023/06/12 07:42:56;;;;;;;;;;;;;;;19.83;37.91;99461.38;4498985;31;34008;-82
2023/06/12 07:45:25;;;;;;;;;;;;;;;20.41;37.88;99460.72;4494309;31;33802;-82
2023/06/12 07:47:55;;;;;;;;;;;;;;;20.12;38.76;99465.00;4493883;31;33920;-82
2023/06/12 07:50:26;;;;;;;;;;;;;;;20.81;35.81;99466.34;4478298;32;33969;-80
2023/06/12 07:52:54;;;;;;;;;;;;;;;20.40;36.82;99461.66;4478225;32;33950;-81
2023/06/12 07:55:23;;;;;;;;;;;;;;;20.62;35.56;99465.75;4484366;31;34253;-81
2023/06/12 07:57:53;;;;;;;;;;;;;;;20.25;36.56;99460.75;4493771;31;32952;-82
2023/06/12 08:00:22;;;;;;;;;;;;;;;20.08;37.48;99457.38;4494030;31;34440;-82
2023/06/12 08:02:54;;;;;;;;;;;;;;;20.70;36.96;99460.84;4493444;31;34226;-81
2023/06/12 08:05:26;;;;;;;;;;;;;;;20.61;35.11;99450.84;4499209;31;33482;-81
2023/06/12 08:07:56;;;;;;;;;;;;;;;20.63;35.71;99454.25;4493444;31;33154;-82
2023/06/12 08:10:26;;;;;;;;;;;;;;;21.00;35.07;99441.53;4492224;31;34466;-82
2023/06/12 08:12:55;;;;;;;;;;;;;;;20.69;35.68;99456.53;4491527;31;34001;-82
2023/06/12 08:15:24;;;;;;;;;;;;;;;20.96;34.03;99447.94;4492733;31;34022;-82
2023/06/12 08:17:53;;;;;;;;;;;;;;;20.95;35.02;99451.47;4498150;31;33236;-81
2023/06/12 08:20:22;;;;;;;;;;;;;;;20.97;34.42;99457.53;4493713;31;34625;-82
2023/06/12 08:22:57;;;;;;;;;;;;;;;21.23;33.70;99440.97;4492945;31;34774;-82
2023/06/12 08:25:28;;;;;;;;;;;;;;;21.06;34.10;99443.78;4489232;31;34600;-81
2023/06/12 08:27:58;;;;;;;;;;;;;;;21.31;35.07;99438.72;4498840;31;33952;-82
2023/06/12 08:30:27;;;;;;;;;;;;;;;21.18;34.87;99447.47;4493566;31;33172;-81
2023/06/12 08:32:59;;;;;;;;;;;;;;;20.82;35.34;99446.94;4492933;31;34577;-82
2023/06/12 08:35:28;;;;;;;;;;;;;;;21.83;34.58;99436.44;4493555;31;34274;-81
2023/06/12 08:37:58;;;;;;;;;;;;;;;21.19;34.74;99441.25;4494103;31;33864;-82
2023/06/12 08:40:27;;;;;;;;;;;;;;;21.57;33.36;99452.09;4498717;31;34936;-82
2023/06/12 08:42:56;;;;;;;;;;;;;;;21.10;33.46;99442.66;4494254;31;34967;-81
2023/06/12 08:45:26;;;;;;;;;;;;;;;20.63;35.36;99456.88;4493203;31;33659;-82
2023/06/12 08:47:56;;;;;;;;;;;;;;;21.00;33.99;99452.09;4478195;32;34194;-81
2023/06/12 08:50:26;;;;;;;;;;;;;;;21.02;34.44;99450.19;4483258;32;34149;-82
2023/06/12 08:52:55;;;;;;;;;;;;;;;21.22;34.44;99460.37;4477899;32;33934;-82
2023/06/12 08:55:25;;;;;;;;;;;;;;;21.26;34.31;99456.62;4478249;32;34158;-81
2023/06/12 08:57:54;;;;;;;;;;;;;;;21.24;33.98;99449.75;4478119;32;33197;-81
2023/06/12 09:00:23;;;;;;;;;;;;;;;21.44;34.34;99456.47;4477305;32;33989;-82
2023/06/12 09:02:52;;;;;;;;;;;;;;;21.01;34.68;99453.78;4482325;31;33874;-82
2023/06/12 09:05:22;;;;;;;;;;;;;;;21.20;35.21;99446.44;4477239;32;34823;-81
2023/06/12 09:07:51;;;;;;;;;;;;;;;21.59;34.24;99450.22;4477946;32;33065;-81
2023/06/12 09:10:21;;;;;;;;;;;;;;;21.61;34.61;99455.41;4479764;32;34779;-82
2023/06/12 09:12:52;;;;;;;;;;;;;;;21.80;33.22;99453.31;4486713;31;33906;-83
2023/06/12 09:15:21;;;;;;;;;;;;;;;21.13;34.67;99453.03;4493168;31;34942;-82
2023/06/12 09:17:49;;;;;;;;;;;;;;;22.03;32.80;99432.50;4492711;31;33098;-82
2023/06/12 09:20:22;;;;;;;;;;;;;;;21.95;32.61;99446.22;4489268;31;34065;-82
2023/06/12 09:23:12;;;;;;;;;;;;;;;21.42;34.43;99431.97;4486188;31;34015;-83
2023/06/12 09:25:43;;;;;;;;;;;;;;;22.11;33.97;99439.00;4498464;31;34148;-82
2023/06/12 09:28:36;;;;;;;;;;;;;;;22.32;32.38;99447.31;4493555;31;33129;-83
2023/06/12 09:31:06;;;;;;;;;;;;;;;22.44;33.29;99447.47;4489417;31;34566;-84
2023/06/12 09:33:37;;;;;;;;;;;;;;;22.81;32.23;99448.53;4492942;31;33880;-82
2023/06/12 09:36:06;;;;;;;;;;;;;;;23.04;31.16;99443.47;4493472;31;34061;-83
2023/06/12 09:38:36;;;;;;;;;;;;;;;22.23;31.81;99440.03;4497631;31;33045;-83
2023/06/12 09:41:05;;;;;;;;;;;;;;;22.65;32.40;99438.13;4494460;31;34086;-82
2023/06/12 09:43:35;;;;;;;;;;;;;;;22.09;32.93;99440.88;4486837;31;33717;-82
2023/06/12 09:46:06;;;;;;;;;;;;;;;22.00;33.21;99445.91;4488044;31;33870;-82
2023/06/12 09:48:35;;;;;;;;;;;;;;;21.77;33.14;99442.97;4484908;31;33280;-82
2023/06/12 09:51:22;;;;;;;;;;;;;;;22.28;32.29;99445.00;4489180;31;33917;-82
2023/06/12 09:53:50;;;;;;;;;;;;;;;22.42;32.56;99442.28;4492469;31;33790;-83
2023/06/12 09:56:20;;;;;;;;;;;;;;;22.78;32.21;99435.47;4489088;31;34397;-82
2023/06/12 09:58:50;;;;;;;;;;;;;;;22.29;33.53;99436.13;4491233;31;34698;-82
2023/06/12 10:01:19;;;;;;;;;;;;;;;22.47;33.99;99439.34;4498783;31;33859;-82
2023/06/12 10:03:48;;;;;;;;;;;;;;;22.76;33.92;99446.19;4493581;31;33845;-83
2023/06/12 10:06:17;;;;;;;;;;;;;;;22.58;32.70;99450.91;4493663;31;33766;-83
2023/06/12 10:08:48;;;;;;;;;;;;;;;23.10;31.98;99446.56;4479931;31;34102;-82
2023/06/12 10:11:17;;;;;;;;;;;;;;;22.98;32.93;99450.06;4477805;32;33821;-84
2023/06/12 10:13:46;;;;;;;;;;;;;;;22.88;32.10;99444.50;4482704;32;34990;-83
2023/06/12 10:16:16;;;;;;;;;;;;;;;23.00;31.91;99448.12;4477866;32;33341;-84
2023/06/12 10:18:45;;;;;;;;;;;;;;;23.14;32.31;99441.88;4486109;31;32744;-83
2023/06/12 10:21:13;;;;;;;;;;;;;;;23.19;32.61;99445.91;4493357;31;34586;-82
2023/06/12 10:23:42;;;;;;;;;;;;;;;23.15;33.29;99433.00;4498014;31;34259;-83
2023/06/12 10:26:11;;;;;;;;;;;;;;;23.00;33.17;99427.81;4493246;31;34945;-83
2023/06/12 10:28:40;;;;;;;;;;;;;;;23.09;33.45;99441.38;4478547;31;32281;-83
2023/06/12 10:31:11;;;;;;;;;;;;;;;23.32;33.08;99435.31;4492826;31;34627;-82
2023/06/12 10:33:59;;;;;;;;;;;;;;;22.95;32.36;99434.34;4492384;31;33826;-82
2023/06/12 10:36:36;;;;;;;;;;;;;;;23.74;31.79;99433.25;4488144;31;34180;-82
2023/06/12 10:39:05;;;;;;;;;;;;;;;23.03;32.34;99439.13;4488115;31;33108;-82
2023/06/12 10:41:34;;;;;;;;;;;;;;;23.72;31.17;99429.00;4492469;31;34545;-83
2023/06/12 10:44:03;;;;;;;;;;;;;;;23.90;31.09;99429.50;4492061;31;34205;-83
2023/06/12 10:46:50;;;;;;;;;;;;;;;23.31;32.08;99430.13;4493010;31;34183;-83
2023/06/12 10:49:20;;;;;;;;;;;;;;;23.34;31.78;99421.97;4498076;31;33484;-83
2023/06/12 10:51:49;;;;;;;;;;;;;;;23.38;32.51;99416.34;4492963;31;33016;-84
2023/06/12 10:54:24;;;;;;;;;;;;;;;23.28;32.79;99419.75;4488730;31;34012;-83
2023/06/12 10:56:57;;;;;;;;;;;;;;;24.06;31.08;99416.81;4476882;32;34768;-82
2023/06/12 10:59:30;;;;;;;;;;;;;;;24.19;30.91;99422.09;4476529;32;33083;-83
2023/06/12 11:01:59;;;;;;;;;;;;;;;24.17;30.21;99413.38;4478827;31;33347;-82
2023/06/12 11:04:29;;;;;;;;;;;;;;;23.83;32.15;99402.62;4492406;31;34320;-84
2023/06/12 11:06:58;;;;;;;;;;;;;;;23.87;31.30;99401.41;4493378;31;33832;-83
2023/06/12 11:09:28;;;;;;;;;;;;;;;24.66;30.47;99410.56;4492418;31;33108;-85
2023/06/12 11:11:57;;;;;;;;;;;;;;;24.09;30.54;99399.84;4494789;31;33981;-83
2023/06/12 11:14:27;;;;;;;;;;;;;;;24.05;30.81;99405.38;4493875;31;34436;-83
2023/06/12 11:16:59;;;;;;;;;;;;;;;24.79;29.54;99406.97;4494297;31;32761;-84
2023/06/12 11:19:28;;;;;;;;;;;;;;;25.05;28.42;99395.19;4494964;31;33486;-83
2023/06/12 11:21:59;;;;;;;;;;;;;;;25.43;28.69;99383.41;4493755;31;33716;-85
2023/06/12 11:24:27;;;;;;;;;;;;;;;24.78;28.91;99392.88;4498978;31;33273;-83
2023/06/12 11:27:00;;;;;;;;;;;;;;;25.45;29.18;99393.91;4489897;31;34940;-83
2023/06/12 11:29:34;;;;;;;;;;;;;;;25.39;28.31;99391.72;4491299;31;34067;-84
2023/06/12 11:32:04;;;;;;;;;;;;;;;24.86;28.78;99390.50;4493876;31;34901;-84
2023/06/12 11:34:34;;;;;;;;;;;;;;;25.81;28.50;99382.13;4499356;31;34844;-84
2023/06/12 11:37:16;;;;;;;;;;;;;;;26.09;27.12;99385.19;4498527;31;34427;-83
2023/06/12 11:39:46;;;;;;;;;;;;;;;25.75;27.39;99388.75;4494711;31;33304;-83
2023/06/12 11:42:17;;;;;;;;;;;;;;;25.61;27.22;99398.81;4493773;31;34452;-82
2023/06/12 11:44:47;;;;;;;;;;;;;;;25.35;28.67;99391.13;4494253;31;34705;-83
2023/06/12 11:47:15;;;;;;;;;;;;;;;25.46;28.12;99390.28;4499045;31;33588;-83
2023/06/12 11:49:47;;;;;;;;;;;;;;;25.56;27.76;99388.56;4494658;31;32857;-83
2023/06/12 11:52:17;;;;;;;;;;;;;;;25.65;27.41;99389.66;4490446;31;33535;-85
2023/06/12 11:54:58;;;;;;;;;;;;;;;24.60;28.07;99396.94;4492591;31;34973;-84
2023/06/12 11:57:31;;;;;;;;;;;;;;;25.87;25.56;99388.78;4488179;31;33847;-83
2023/06/12 11:59:59;;;;;;;;;;;;;;;25.89;24.93;99389.50;4492517;31;33543;-84
2023/06/12 12:02:32;;;;;;;;;;;;;;;25.29;22.94;99391.63;4485939;31;33943;-84
2023/06/12 12:05:04;;;;;;;;;;;;;;;25.23;22.80;99392.13;4478460;31;34576;-82
2023/06/12 12:07:35;;;;;;;;;;;;;;;25.11;23.19;99386.75;4478726;31;34113;-82
2023/06/12 12:10:06;;;;;;;;;;;;;;;24.67;23.16;99382.25;4488351;31;33533;-84
2023/06/12 12:12:40;;;;;;;;;;;;;;;25.36;23.68;99376.03;4476721;31;33951;-83
2023/06/12 12:15:10;;;;;;;;;;;;;;;24.77;22.32;99379.75;4493015;31;34378;-83
2023/06/12 12:17:40;;;;;;;;;;;;;;;24.40;23.63;99387.78;4493374;31;33854;-82
2023/06/12 12:20:17;;;;;;;;;;;;;;;24.97;23.47;99387.00;4493773;31;32938;-83
2023/06/12 12:22:50;;;;;;;;;;;;;;;24.81;23.58;99382.00;4499314;31;33903;-83
2023/06/12 12:25:21;;;;;;;;;;;;;;;25.19;23.29;99374.72;4495658;31;35229;-83
2023/06/12 12:27:51;;;;;;;;;;;;;;;25.54;23.54;99378.06;4485884;31;33906;-84
2023/06/12 12:30:20;;;;;;;;;;;;;;;25.03;23.75;99375.91;4489066;31;33180;-84
2023/06/12 12:32:50;;;;;;;;;;;;;;;25.76;23.91;99371.88;4485674;31;35058;-83
2023/06/12 12:35:19;;;;;;;;;;;;;;;26.24;22.97;99377.75;4493047;31;33741;-84
2023/06/12 12:37:50;;;;;;;;;;;;;;;25.88;24.39;99367.41;4478136;31;33995;-85
2023/06/12 12:40:19;;;;;;;;;;;;;;;26.37;23.34;99362.47;4478974;31;32314;-84
2023/06/12 12:42:48;;;;;;;;;;;;;;;26.53;23.48;99368.22;4487561;31;34177;-82
2023/06/12 12:45:16;;;;;;;;;;;;;;;25.95;22.94;99367.72;4492303;31;34724;-83
2023/06/12 12:47:47;;;;;;;;;;;;;;;25.66;23.62;99364.75;4486806;31;33624;-83
2023/06/12 12:50:18;;;;;;;;;;;;;;;25.46;23.76;99377.84;4493124;31;32954;-82
2023/06/12 12:52:52;;;;;;;;;;;;;;;26.15;22.93;99369.59;4493858;31;34673;-83
2023/06/12 12:55:21;;;;;;;;;;;;;;;26.53;21.69;99367.34;4493830;31;36028;-83
2023/06/12 12:57:50;;;;;;;;;;;;;;;26.98;21.56;99361.75;4498998;31;34633;-82
2023/06/12 13:00:29;;;;;;;;;;;;;;;26.31;21.18;99363.84;4493163;31;33043;-83
2023/06/12 13:02:58;;;;;;;;;;;;;;;26.70;20.89;99366.78;4492942;31;34905;-83